createdAt,value
2019-04-23T00:00:04.959Z,2.53
2019-04-23T00:02:23.324Z,3.03
2019-04-23T00:04:53.085Z,3.17
2019-04-23T00:07:35.685Z,2.27
2019-04-23T00:10:03.498Z,2.90
2019-04-23T00:12:38.484Z,2.47
2019-04-23T00:15:05.153Z,2.77
2019-04-23T00:20:06.472Z,2.43
2019-04-23T00:23:02.434Z,2.83
2019-04-23T00:25:51.080Z,2.80
2019-04-23T00:30:48.292Z,2.73
2019-04-23T00:33:21.744Z,2.80
2019-04-23T00:35:48.616Z,2.30
2019-04-23T00:38:18.234Z,2.97
2019-04-23T00:40:47.379Z,2.10
2019-04-23T00:43:24.294Z,2.80
2019-04-23T00:50:52.453Z,2.90
2019-04-23T00:53:17.716Z,2.70
2019-04-23T00:55:52.773Z,2.30
2019-04-23T01:00:56.141Z,2.60
2019-04-23T01:06:07.765Z,2.97
2019-04-23T01:08:24.937Z,2.57
2019-04-23T01:13:31.528Z,2.43
2019-04-23T01:16:08.528Z,2.90
2019-04-23T01:18:48.826Z,3.13
2019-04-23T01:20:54.618Z,2.93
2019-04-23T01:23:40.635Z,2.97
2019-04-23T01:26:23.937Z,3.20
2019-04-23T01:29:05.326Z,3.07
2019-04-23T01:31:33.128Z,2.80
2019-04-23T01:34:11.464Z,2.37
2019-04-23T01:36:33.019Z,2.87
2019-04-23T01:39:06.341Z,2.50
2019-04-23T01:41:33.341Z,3.27
2019-04-23T01:44:07.458Z,2.40
2019-04-23T01:46:45.810Z,2.37
2019-04-23T01:49:09.538Z,3.30
2019-04-23T01:51:40.035Z,2.83
2019-04-23T01:54:10.852Z,2.63
2019-04-23T01:56:33.457Z,2.50
2019-04-23T01:59:12.649Z,2.77
2019-04-23T02:01:44.638Z,3.17
2019-04-23T02:04:19.752Z,2.73
2019-04-23T02:07:01.167Z,2.80
2019-04-23T02:09:13.788Z,3.10
2019-04-23T02:11:47.445Z,3.03
2019-04-23T02:14:14.883Z,2.93
2019-04-23T02:16:47.806Z,3.10
2019-04-23T02:19:16.993Z,3.10
2019-04-23T02:21:57.745Z,2.70
2019-04-23T02:24:29.916Z,2.93
2019-04-23T02:26:48.600Z,2.87
2019-04-23T02:29:36.367Z,3.13
2019-04-23T02:32:03.314Z,2.63
2019-04-23T02:34:43.268Z,2.67
2019-04-23T02:37:02.129Z,2.30
2019-04-23T02:39:45.994Z,2.90
2019-04-23T02:42:18.727Z,2.80
2019-04-23T02:44:46.991Z,3.20
2019-04-23T02:49:43.748Z,3.90
2019-04-23T02:52:11.261Z,2.90
2019-04-23T02:57:08.791Z,2.33
2019-04-23T03:04:49.984Z,2.40
2019-04-23T03:07:39.041Z,3.30
2019-04-23T03:09:49.890Z,2.90
2019-04-23T03:12:27.073Z,2.50
2019-04-23T03:14:59.200Z,3.07
2019-04-23T03:17:36.944Z,3.00
2019-04-23T03:25:36.207Z,2.47
2019-04-23T03:28:16.326Z,2.33
2019-04-23T03:31:57.622Z,2.50
2019-04-23T03:34:02.634Z,2.70
2019-04-23T03:38:30.169Z,2.77
2019-04-23T03:41:02.314Z,3.60
2019-04-23T03:43:29.635Z,2.50
2019-04-23T03:48:34.083Z,2.80
2019-04-23T03:50:46.441Z,2.67
2019-04-23T03:53:34.670Z,2.43
2019-04-23T03:56:12.484Z,2.70
2019-04-23T03:58:27.798Z,2.80
2019-04-23T04:01:04.157Z,2.00
2019-04-23T04:03:55.210Z,2.73
2019-04-23T04:06:05.522Z,2.40
2019-04-23T04:13:30.901Z,2.70
2019-04-23T04:18:38.649Z,2.70
2019-04-23T04:23:33.825Z,2.53
2019-04-23T04:28:44.544Z,2.77
2019-04-23T04:31:05.733Z,2.83
2019-04-23T04:33:49.086Z,2.73
2019-04-23T04:38:42.393Z,2.50
2019-04-23T04:41:09.560Z,2.80
2019-04-23T04:43:41.368Z,2.90
2019-04-23T04:46:25.399Z,2.90
2019-04-23T04:48:44.358Z,2.83
2019-04-23T04:51:19.407Z,2.97
2019-04-23T05:03:29.700Z,2.43
2019-04-23T05:08:48.023Z,2.90
2019-04-23T05:11:17.444Z,2.60
2019-04-23T05:13:44.624Z,2.93
2019-04-23T05:16:12.486Z,3.07
2019-04-23T05:19:15.503Z,2.70
2019-04-23T05:21:38.782Z,2.90
2019-04-23T05:24:02.896Z,3.20
2019-04-23T05:26:27.189Z,2.50
2019-04-23T05:31:30.965Z,2.57
2019-04-23T05:34:04.535Z,3.40
2019-04-23T05:36:34.345Z,3.20
2019-04-23T05:39:12.080Z,3.27
2019-04-23T05:44:13.799Z,3.43
2019-04-23T05:46:37.702Z,3.13
2019-04-23T05:49:09.331Z,2.93
2019-04-23T05:51:42.035Z,3.30
2019-04-23T05:54:08.429Z,2.57
2019-04-23T06:04:24.818Z,2.73
2019-04-23T06:09:15.875Z,2.93
2019-04-23T06:16:41.464Z,3.00
2019-04-23T06:19:15.797Z,3.43
2019-04-23T06:21:54.964Z,3.40
2019-04-23T06:24:16.337Z,2.90
2019-04-23T06:26:45.810Z,2.90
2019-04-23T06:29:22.496Z,3.33
2019-04-23T06:36:46.598Z,2.93
2019-04-23T06:39:23.295Z,3.65
2019-04-23T06:41:49.952Z,3.70
2019-04-23T06:46:56.869Z,3.40
2019-04-23T06:49:23.674Z,4.77
2019-04-23T06:52:00.472Z,4.07
2019-04-23T06:54:25.777Z,3.70
2019-04-23T06:59:27.359Z,5.03
2019-04-23T07:02:21.011Z,4.00
2019-04-23T07:07:24.094Z,3.60
2019-04-23T07:09:35.471Z,3.67
2019-04-23T07:11:59.061Z,4.25
2019-04-23T07:14:36.975Z,3.70
2019-04-23T07:16:58.492Z,4.00
2019-04-23T07:22:09.999Z,4.13
2019-04-23T07:24:28.839Z,4.17
2019-04-23T07:27:01.351Z,3.57
2019-04-23T07:29:30.868Z,4.40
2019-04-23T07:32:08.871Z,4.80
2019-04-23T07:34:44.217Z,4.23
2019-04-23T07:37:05.181Z,3.47
2019-04-23T07:39:57.051Z,3.73
2019-04-23T07:42:34.425Z,3.73
2019-04-23T07:45:20.549Z,4.10
2019-04-23T07:48:15.233Z,3.40
2019-04-23T07:50:48.000Z,3.27
2019-04-23T07:53:13.293Z,3.50
2019-04-23T07:58:15.539Z,3.53
2019-04-23T08:00:45.143Z,4.30
2019-04-23T08:03:17.389Z,3.20
2019-04-23T08:05:49.692Z,4.00
2019-04-23T08:08:07.519Z,3.40
2019-04-23T08:10:46.713Z,3.30
2019-04-23T08:13:17.307Z,4.72
2019-04-23T08:15:42.947Z,3.93
2019-04-23T08:18:13.495Z,3.60
2019-04-23T08:20:55.629Z,3.30
2019-04-23T08:23:40.459Z,3.23
2019-04-23T08:26:26.835Z,3.50
2019-04-23T08:29:01.113Z,4.03
2019-04-23T08:31:30.425Z,3.90
2019-04-23T08:33:56.966Z,3.73
2019-04-23T08:36:23.722Z,3.60
2019-04-23T08:38:50.574Z,2.80
2019-04-23T08:41:26.896Z,3.27
2019-04-23T08:44:15.586Z,3.47
2019-04-23T08:47:08.707Z,3.50
2019-04-23T08:49:36.166Z,3.50
2019-04-23T08:52:10.530Z,4.53
2019-04-23T08:54:46.764Z,3.07
2019-04-23T08:57:04.026Z,3.37
2019-04-23T09:02:17.559Z,3.20
2019-04-23T09:04:31.141Z,3.10
2019-04-23T09:07:04.927Z,3.60
2019-04-23T09:09:34.960Z,3.07
2019-04-23T09:14:42.438Z,3.70
2019-04-23T09:17:13.268Z,3.10
2019-04-23T09:19:42.857Z,3.90
2019-04-23T09:22:14.453Z,5.10
2019-04-23T09:24:43.264Z,4.10
2019-04-23T09:27:16.318Z,3.90
2019-04-23T09:29:49.121Z,4.50
2019-04-23T09:32:30.251Z,4.20
2019-04-23T09:35:14.337Z,3.37
2019-04-23T09:41:15.720Z,4.63
2019-04-23T09:43:47.356Z,4.50
2019-04-23T09:46:45.170Z,4.43
2019-04-23T09:49:14.872Z,4.50
2019-04-23T09:54:23.656Z,4.03
2019-04-23T09:56:44.604Z,4.57
2019-04-23T09:59:17.672Z,3.73
2019-04-23T10:01:40.902Z,3.63
2019-04-23T10:03:57.666Z,4.13
2019-04-23T10:06:22.640Z,3.87
2019-04-23T10:08:53.572Z,3.50
2019-04-23T10:11:20.001Z,3.90
2019-04-23T10:13:50.340Z,3.53
2019-04-23T10:16:21.512Z,4.40
2019-04-23T10:18:50.999Z,3.70
2019-04-23T10:21:21.347Z,3.83
2019-04-23T10:23:51.676Z,4.17
2019-04-23T10:26:21.843Z,3.80
2019-04-23T10:29:02.114Z,3.50
2019-04-23T10:31:31.587Z,3.33
2019-04-23T10:34:01.960Z,3.60
2019-04-23T10:36:32.502Z,2.63
2019-04-23T10:39:08.616Z,3.60
2019-04-23T10:41:33.244Z,3.70
2019-04-23T10:44:09.120Z,4.23
2019-04-23T10:47:12.359Z,4.07
2019-04-23T10:49:53.405Z,3.70
2019-04-23T10:52:19.091Z,3.57
2019-04-23T10:54:45.650Z,3.70
2019-04-23T10:57:16.173Z,3.60
2019-04-23T11:02:34.701Z,4.03
2019-04-23T11:05:08.834Z,3.70
2019-04-23T11:12:52.234Z,3.57
2019-04-23T11:15:32.431Z,4.07
2019-04-23T11:17:47.753Z,3.73
2019-04-23T11:20:30.218Z,3.83
2019-04-23T11:22:51.576Z,3.43
2019-04-23T11:25:31.640Z,3.40
2019-04-23T11:27:59.837Z,4.23
2019-04-23T11:30:31.869Z,3.10
2019-04-23T11:35:39.654Z,3.50
2019-04-23T11:40:25.253Z,3.60
2019-04-23T11:53:06.712Z,3.60
2019-04-23T11:55:44.928Z,2.80
2019-04-23T12:00:51.134Z,3.53
2019-04-23T12:03:07.418Z,2.90
2019-04-23T12:06:15.339Z,3.13
2019-04-23T12:09:00.602Z,2.63
2019-04-23T12:19:52.659Z,2.60
2019-04-23T12:29:37.477Z,2.60
2019-04-23T12:32:43.270Z,3.03
2019-04-23T12:35:01.306Z,2.90
2019-04-23T12:40:20.012Z,2.93
2019-04-23T12:45:28.911Z,2.90
2019-04-23T12:47:58.475Z,2.90
2019-04-23T12:55:21.688Z,3.00
2019-04-23T13:03:05.082Z,2.80
2019-04-23T13:05:31.256Z,2.70
2019-04-23T13:07:54.063Z,2.90
2019-04-23T13:10:30.242Z,3.03
2019-04-23T13:13:03.643Z,2.60
2019-04-23T13:20:27.951Z,2.80
2019-04-23T13:25:47.292Z,2.93
2019-04-23T13:33:31.976Z,3.50
2019-04-23T13:36:12.048Z,2.77
2019-04-23T13:38:25.083Z,3.00
2019-04-23T13:46:09.993Z,2.63
2019-04-23T13:48:24.887Z,2.50
2019-04-23T13:51:08.270Z,2.77
2019-04-23T13:53:42.717Z,3.03
2019-04-23T13:56:18.599Z,2.50
2019-04-23T14:03:41.146Z,2.60
2019-04-23T14:06:23.230Z,2.60
2019-04-23T14:13:52.986Z,2.53
2019-04-23T14:16:21.307Z,2.50
2019-04-23T14:21:18.977Z,2.87
2019-04-23T14:24:03.343Z,2.83
2019-04-23T14:26:25.996Z,2.50
2019-04-23T14:36:39.640Z,2.37
2019-04-23T14:38:54.484Z,2.37
2019-04-23T14:41:24.936Z,3.00
2019-04-23T14:44:05.682Z,2.80
2019-04-23T14:48:59.863Z,2.70
2019-04-23T14:51:32.143Z,2.93
2019-04-23T14:53:53.798Z,3.00
2019-04-23T14:56:32.448Z,2.77
2019-04-23T14:59:01.702Z,3.03
2019-04-23T15:03:55.965Z,2.73
2019-04-23T15:09:10.825Z,3.10
2019-04-23T15:16:32.917Z,3.00
2019-04-23T15:24:13.889Z,3.20
2019-04-23T15:28:56.254Z,3.30
2019-04-23T15:34:17.687Z,2.83
2019-04-23T15:39:24.547Z,2.60
2019-04-23T15:41:57.208Z,2.73
2019-04-23T15:46:56.568Z,3.00
2019-04-23T15:51:53.770Z,2.80
2019-04-23T15:54:17.857Z,2.80
2019-04-23T15:56:56.423Z,2.70
2019-04-23T15:59:29.324Z,2.43
2019-04-23T16:01:40.538Z,3.00
2019-04-23T16:03:53.786Z,2.90
2019-04-23T16:06:27.272Z,2.33
2019-04-23T16:09:33.590Z,2.23
2019-04-23T16:11:50.134Z,2.43
2019-04-23T16:14:46.106Z,2.10
2019-04-23T16:16:55.171Z,2.60
2019-04-23T16:19:42.891Z,2.20
2019-04-23T16:24:45.993Z,2.33
2019-04-23T16:27:11.064Z,2.10
2019-04-23T16:29:54.194Z,2.20
2019-04-23T16:32:20.867Z,2.57
2019-04-23T16:34:44.755Z,2.00
2019-04-23T16:39:56.003Z,2.03
2019-04-23T16:42:27.266Z,2.40
2019-04-23T16:45:12.542Z,1.90
2019-04-23T16:47:26.118Z,2.20
2019-04-23T16:52:21.358Z,2.60
2019-04-23T16:57:43.800Z,2.23
2019-04-23T17:00:15.173Z,2.20
2019-04-23T17:02:24.434Z,3.57
2019-04-23T17:05:02.890Z,3.17
2019-04-23T17:07:20.297Z,1.97
2019-04-23T17:12:28.853Z,1.90
2019-04-23T17:15:05.349Z,2.33
2019-04-23T17:17:24.739Z,1.90
2019-04-23T17:22:31.366Z,3.30
2019-04-23T17:27:39.124Z,2.37
2019-04-23T17:30:09.672Z,2.13
2019-04-23T17:32:57.223Z,2.20
2019-04-23T17:35:30.359Z,1.63
2019-04-23T17:38:10.852Z,2.93
2019-04-23T17:40:59.796Z,3.20
2019-04-23T17:43:26.458Z,3.00
2019-04-23T17:46:01.221Z,3.33
2019-04-23T17:48:28.690Z,2.60
2019-04-23T17:53:43.088Z,2.17
2019-04-23T18:06:30.200Z,1.80
2019-04-23T18:08:53.992Z,2.00
2019-04-23T18:11:29.841Z,2.83
2019-04-23T18:13:57.151Z,2.50
2019-04-23T18:16:35.550Z,3.10
2019-04-23T18:27:00.114Z,1.80
2019-04-23T18:29:51.585Z,3.03
2019-04-23T18:32:35.359Z,2.90
2019-04-23T18:35:15.582Z,3.00
2019-04-23T18:40:02.027Z,2.40
2019-04-23T18:42:41.721Z,2.60
2019-04-23T18:45:03.701Z,2.57
2019-04-23T18:47:51.912Z,2.60
2019-04-23T18:50:16.351Z,2.77
2019-04-23T18:52:58.507Z,2.70
2019-04-23T18:55:14.546Z,2.60
2019-04-23T18:57:45.754Z,3.20
2019-04-23T19:00:37.010Z,2.80
2019-04-23T19:05:43.478Z,2.60
2019-04-23T19:08:21.203Z,2.80
2019-04-23T19:10:57.805Z,3.83
2019-04-23T19:13:57.371Z,3.50
2019-04-23T19:16:15.859Z,4.00
2019-04-23T19:18:56.268Z,4.00
2019-04-23T19:21:36.307Z,3.20
2019-04-23T19:23:52.897Z,3.37
2019-04-23T19:26:49.287Z,3.20
2019-04-23T19:31:40.487Z,3.10
2019-04-23T19:36:52.582Z,3.23
2019-04-23T19:39:21.498Z,2.70
2019-04-23T19:41:57.456Z,3.33
2019-04-23T19:44:08.705Z,3.20
2019-04-23T19:51:49.422Z,3.60
2019-04-23T19:56:51.508Z,2.90
2019-04-23T19:59:13.413Z,3.10
2019-04-23T20:01:53.323Z,4.17
2019-04-23T20:04:16.112Z,2.50
2019-04-23T20:07:04.364Z,3.40
2019-04-23T20:09:37.349Z,2.80
2019-04-23T20:12:04.555Z,3.63
2019-04-23T20:14:21.231Z,2.80
2019-04-23T20:19:32.352Z,2.97
2019-04-23T20:22:00.559Z,3.07
2019-04-23T20:24:47.241Z,3.23
2019-04-23T20:26:59.802Z,3.43
2019-04-23T20:30:02.805Z,2.70
2019-04-23T20:33:02.973Z,2.83
2019-04-23T20:37:30.899Z,3.10
2019-04-23T20:39:56.829Z,3.37
2019-04-23T20:42:44.423Z,3.40
2019-04-23T20:49:48.561Z,3.30
2019-04-23T20:52:13.776Z,3.23
2019-04-23T20:55:01.928Z,3.37
2019-04-23T20:57:51.814Z,3.13
2019-04-23T21:00:27.992Z,2.93
2019-04-23T21:05:33.117Z,3.40
2019-04-23T21:08:30.883Z,3.70
2019-04-23T21:15:46.279Z,4.17
2019-04-23T21:20:40.137Z,4.00
2019-04-23T21:23:10.920Z,3.10
2019-04-23T21:25:44.632Z,3.77
2019-04-23T21:31:07.046Z,4.37
2019-04-23T21:33:46.082Z,3.80
2019-04-23T21:36:42.586Z,3.70
2019-04-23T21:39:18.413Z,3.47
2019-04-23T21:41:53.507Z,2.87
2019-04-23T21:44:13.522Z,3.73
2019-04-23T21:46:48.146Z,2.90
2019-04-23T21:51:55.790Z,4.03
2019-04-23T21:54:06.020Z,2.80
2019-04-23T21:56:47.027Z,3.47
2019-04-23T22:02:09.190Z,3.60
2019-04-23T22:04:24.737Z,2.87
2019-04-23T22:14:28.977Z,3.40
2019-04-23T22:17:13.119Z,3.00
2019-04-23T22:19:20.251Z,3.30
2019-04-23T22:22:01.166Z,3.27
2019-04-23T22:24:19.769Z,3.90
2019-04-23T22:26:53.300Z,3.50
2019-04-23T22:31:53.797Z,2.80
2019-04-23T22:39:43.901Z,2.87
2019-04-23T22:42:22.421Z,2.53
2019-04-23T22:44:51.551Z,2.60
2019-04-23T22:47:06.002Z,3.27
2019-04-23T22:50:07.532Z,3.57
2019-04-23T22:52:23.084Z,3.30
2019-04-23T22:55:03.607Z,3.03
2019-04-23T22:57:17.004Z,3.57
2019-04-23T23:00:04.402Z,2.83
2019-04-23T23:05:14.125Z,3.30
2019-04-23T23:07:51.167Z,3.87
2019-04-23T23:15:24.462Z,3.53
2019-04-23T23:17:50.904Z,2.90
2019-04-23T23:22:51.808Z,2.83
2019-04-23T23:25:24.666Z,3.40
2019-04-23T23:30:15.684Z,2.70
2019-04-23T23:32:52.389Z,3.47
2019-04-23T23:37:48.123Z,3.00
2019-04-23T23:42:54.631Z,2.90
2019-04-23T23:47:44.727Z,3.23
2019-04-23T23:50:36.576Z,3.53
2019-04-23T23:52:54.877Z,4.00
2019-04-23T23:57:50.934Z,3.43
